Abercarn, United Kingdom
Current Conditions -  °F | °C
As of 11:20 AM on Friday 24 Oct 2014 (Local Time) from EGFF Reporting Station
Moderate Rain Moderate Rain  
Wind Chill: 14°   Ceiling: 200
Heat Index: 14°   Visibility: 1.5mi
Dew Point: 14°   Wind: 6mph
Humidity: 100%   Direction: 250°WSW
Pressure: 29.94"   Gusts: NA
Location:  51.65°N, 3.13°W
Report Text: EGFF 241020Z 25005KT 2500 RA BR FEW001 BKN002 OVC006 14/14 Q1014 REDZ
Loading
Personal Weather Stations






























Interactive Weather Map
Tropical Storm Tracking
New forecast layout! Learn more

10-Day Weather Forecast

Advertisements
Track Severe Weather on mobile